Time;durP1;ratioP1;P1;durP2;ratioP2;P2;SDS_P1;SDS_P2;PMS_P1;PMS_P2;Temp;Humidity;BMP_temperature;BMP_pressure;BME280_temperature;BME280_humidity;BME280_pressure;Samples;Min_cycle;Max_cycle;Signal;HPM_P1;HPM_P2
2020/01/01 00:02:54;;;;;;;22.41;16.63;;;;;;;18.68;39.33;102319.80;;;;-49
2020/01/01 00:05:54;;;;;;;21.14;16.75;;;;;;;18.66;39.31;102317.70;;;;-49
2020/01/01 00:08:54;;;;;;;18.33;15.61;;;;;;;18.66;39.47;102309.25;;;;-48
2020/01/01 00:11:57;;;;;;;19.93;16.65;;;;;;;18.65;39.54;102306.72;;;;-47
2020/01/01 00:14:54;;;;;;;18.33;15.37;;;;;;;18.64;39.55;102304.24;;;;-46
2020/01/01 00:17:54;;;;;;;19.81;16.29;;;;;;;18.65;39.58;102302.70;;;;-46
2020/01/01 00:20:54;;;;;;;19.84;16.25;;;;;;;18.64;39.60;102302.28;;;;-47
2020/01/01 00:23:54;;;;;;;18.85;16.11;;;;;;;18.64;39.59;102303.59;;;;-47
2020/01/01 00:26:54;;;;;;;19.25;15.74;;;;;;;18.62;39.56;102303.36;;;;-47
2020/01/01 00:29:54;;;;;;;17.63;15.63;;;;;;;18.59;39.54;102293.76;;;;-47
2020/01/01 00:32:54;;;;;;;19.15;16.15;;;;;;;18.58;39.50;102291.34;;;;-47
2020/01/01 00:35:54;;;;;;;18.79;16.13;;;;;;;18.56;39.42;102297.38;;;;-47
2020/01/01 00:38:54;;;;;;;17.97;15.85;;;;;;;18.54;39.40;102287.23;;;;-47
2020/01/01 00:41:54;;;;;;;17.29;14.97;;;;;;;18.53;39.46;102285.97;;;;-47
2020/01/01 00:44:54;;;;;;;17.55;15.65;;;;;;;18.51;39.39;102287.05;;;;-47
2020/01/01 00:47:54;;;;;;;18.75;15.48;;;;;;;18.50;39.31;102294.95;;;;-47
2020/01/01 00:50:54;;;;;;;17.25;15.03;;;;;;;18.48;39.38;102297.73;;;;-47
2020/01/01 00:53:54;;;;;;;17.18;15.31;;;;;;;18.47;39.26;102301.36;;;;-47
2020/01/01 00:56:54;;;;;;;17.53;15.55;;;;;;;18.45;39.23;102295.73;;;;-47
2020/01/01 00:59:54;;;;;;;16.49;14.52;;;;;;;18.43;39.38;102296.86;;;;-47
2020/01/01 01:03:03;;;;;;;17.15;15.09;;;;;;;18.43;39.34;102305.77;;;;-47
2020/01/01 01:05:54;;;;;;;16.94;14.63;;;;;;;18.41;39.24;102309.92;;;;-47
2020/01/01 01:08:54;;;;;;;17.44;15.35;;;;;;;18.40;39.26;102303.05;;;;-47
2020/01/01 01:11:54;;;;;;;18.43;15.37;;;;;;;18.38;39.25;102300.75;;;;-47
2020/01/01 01:14:54;;;;;;;17.79;15.48;;;;;;;18.37;39.30;102302.23;;;;-47
2020/01/01 01:17:54;;;;;;;16.31;14.55;;;;;;;18.36;39.35;102305.02;;;;-47
2020/01/01 01:20:54;;;;;;;16.70;14.91;;;;;;;18.34;39.33;102304.86;;;;-47
2020/01/01 01:23:54;;;;;;;16.22;14.43;;;;;;;18.33;39.29;102303.78;;;;-47
2020/01/01 01:26:59;;;;;;;16.43;14.73;;;;;;;18.32;39.27;102306.38;;;;-47
2020/01/01 01:29:54;;;;;;;16.30;14.59;;;;;;;18.30;39.31;102306.42;;;;-47
2020/01/01 01:32:54;;;;;;;16.34;14.64;;;;;;;18.29;39.29;102303.77;;;;-47
2020/01/01 01:35:54;;;;;;;16.15;14.35;;;;;;;18.28;39.32;102306.93;;;;-47
2020/01/01 01:38:54;;;;;;;17.75;14.57;;;;;;;18.27;39.33;102310.42;;;;-47
2020/01/01 01:41:54;;;;;;;16.52;14.76;;;;;;;18.26;39.28;102306.44;;;;-47
2020/01/01 01:44:54;;;;;;;15.79;14.05;;;;;;;18.25;39.32;102311.05;;;;-47
2020/01/01 01:47:54;;;;;;;16.63;14.69;;;;;;;18.24;39.36;102313.14;;;;-48
2020/01/01 01:50:54;;;;;;;15.99;14.07;;;;;;;18.22;39.32;102319.58;;;;-47
2020/01/01 01:53:54;;;;;;;16.50;14.43;;;;;;;18.21;39.36;102320.78;;;;-47
2020/01/01 01:56:54;;;;;;;15.60;13.93;;;;;;;18.20;39.34;102314.84;;;;-47
2020/01/01 01:59:54;;;;;;;15.21;13.61;;;;;;;18.19;39.34;102319.09;;;;-47
2020/01/01 02:02:54;;;;;;;15.49;13.89;;;;;;;18.18;39.26;102316.51;;;;-47
2020/01/01 02:05:54;;;;;;;16.25;14.43;;;;;;;18.17;39.33;102314.76;;;;-47
2020/01/01 02:08:54;;;;;;;16.20;13.60;;;;;;;18.15;39.34;102312.89;;;;-47
2020/01/01 02:11:54;;;;;;;15.55;13.79;;;;;;;18.14;39.30;102315.97;;;;-47
2020/01/01 02:14:54;;;;;;;15.92;14.22;;;;;;;18.12;39.40;102312.80;;;;-47
2020/01/01 02:17:54;;;;;;;16.82;14.06;;;;;;;18.11;39.31;102312.30;;;;-47
2020/01/01 02:20:54;;;;;;;15.65;13.96;;;;;;;18.09;39.36;102309.41;;;;-47
2020/01/01 02:23:54;;;;;;;15.40;13.79;;;;;;;18.09;39.33;102301.86;;;;-48
2020/01/01 02:26:54;;;;;;;15.75;13.97;;;;;;;18.08;39.39;102294.42;;;;-47
2020/01/01 02:29:54;;;;;;;15.23;13.47;;;;;;;18.06;39.30;102294.87;;;;-46
2020/01/01 02:32:54;;;;;;;15.00;13.43;;;;;;;18.05;39.33;102299.64;;;;-47
2020/01/01 02:35:54;;;;;;;15.79;14.05;;;;;;;18.04;39.36;102295.80;;;;-47
2020/01/01 02:38:54;;;;;;;15.79;13.56;;;;;;;18.03;39.31;102285.52;;;;-47
2020/01/01 02:41:54;;;;;;;16.25;13.35;;;;;;;18.02;39.25;102279.34;;;;-47
2020/01/01 02:44:54;;;;;;;14.87;13.27;;;;;;;18.00;39.33;102274.25;;;;-47
2020/01/01 02:47:54;;;;;;;14.85;13.12;;;;;;;18.00;39.34;102276.40;;;;-47
2020/01/01 02:50:54;;;;;;;15.68;13.99;;;;;;;17.99;39.31;102275.77;;;;-47
2020/01/01 02:53:54;;;;;;;15.71;13.54;;;;;;;17.98;39.38;102273.90;;;;-47
2020/01/01 02:56:54;;;;;;;16.47;13.62;;;;;;;17.97;39.32;102274.44;;;;-47
2020/01/01 02:59:54;;;;;;;15.31;13.61;;;;;;;17.96;39.33;102274.46;;;;-47
2020/01/01 03:02:54;;;;;;;16.22;13.94;;;;;;;17.95;39.33;102265.19;;;;-46
2020/01/01 03:05:54;;;;;;;15.77;14.14;;;;;;;17.93;39.33;102262.58;;;;-47
2020/01/01 03:08:54;;;;;;;15.96;14.29;;;;;;;17.93;39.34;102268.98;;;;-47
2020/01/01 03:11:54;;;;;;;17.05;15.01;;;;;;;17.93;39.30;102270.97;;;;-47
2020/01/01 03:14:54;;;;;;;16.05;14.35;;;;;;;17.91;39.32;102274.32;;;;-47
2020/01/01 03:17:54;;;;;;;17.06;15.25;;;;;;;17.91;39.35;102273.09;;;;-47
2020/01/01 03:20:54;;;;;;;18.78;15.17;;;;;;;17.90;39.29;102266.72;;;;-47
2020/01/01 03:24:00;;;;;;;17.59;15.60;;;;;;;17.89;39.33;102262.23;;;;-47
2020/01/01 03:26:54;;;;;;;17.62;15.57;;;;;;;17.87;39.34;102260.77;;;;-47
2020/01/01 03:29:54;;;;;;;18.73;16.19;;;;;;;17.87;39.29;102257.91;;;;-47
2020/01/01 03:32:54;;;;;;;18.89;16.76;;;;;;;17.86;39.33;102259.23;;;;-47
2020/01/01 03:35:54;;;;;;;20.29;16.84;;;;;;;17.85;39.30;102256.15;;;;-47
2020/01/01 03:38:54;;;;;;;19.92;17.48;;;;;;;17.85;39.34;102251.39;;;;-46
2020/01/01 03:41:54;;;;;;;20.05;17.85;;;;;;;17.84;39.29;102253.34;;;;-47
2020/01/01 03:44:54;;;;;;;20.21;18.00;;;;;;;17.82;39.33;102250.84;;;;-47
2020/01/01 03:48:36;;;;;;;20.98;17.98;;;;;;;17.84;39.25;102249.86;;;;-47
2020/01/01 03:51:57;;;;;;;20.83;18.44;;;;;;;17.82;39.20;102247.47;;;;-47
2020/01/01 03:54:54;;;;;;;21.76;18.85;;;;;;;17.81;39.23;102248.45;;;;-47
2020/01/01 03:57:54;;;;;;;21.61;19.12;;;;;;;17.80;39.24;102239.13;;;;-47
2020/01/01 04:00:54;;;;;;;20.85;18.51;;;;;;;17.79;39.22;102234.72;;;;-47
2020/01/01 04:03:55;;;;;;;21.79;19.29;;;;;;;17.82;39.16;102232.94;;;;-47
2020/01/01 04:06:55;;;;;;;22.27;19.49;;;;;;;17.84;39.18;102231.81;;;;-47
2020/01/01 04:09:56;;;;;;;21.47;18.95;;;;;;;17.84;39.17;102227.58;;;;-47
2020/01/01 04:12:54;;;;;;;22.05;19.41;;;;;;;17.86;39.21;102231.10;;;;-47
2020/01/01 04:15:56;;;;;;;22.45;19.25;;;;;;;17.88;39.09;102237.09;;;;-47
2020/01/01 04:18:54;;;;;;;22.37;19.60;;;;;;;17.91;39.07;102238.91;;;;-47
2020/01/01 04:21:54;;;;;;;22.60;19.31;;;;;;;17.93;39.12;102236.33;;;;-46
2020/01/01 04:24:54;;;;;;;21.91;19.55;;;;;;;17.95;39.32;102234.88;;;;-47
2020/01/01 04:27:54;;;;;;;22.84;19.76;;;;;;;17.98;39.48;102230.77;;;;-46
2020/01/01 04:30:54;;;;;;;22.27;19.87;;;;;;;18.01;39.48;102226.94;;;;-47
2020/01/01 04:33:54;;;;;;;21.62;19.32;;;;;;;18.05;39.52;102222.02;;;;-47
2020/01/01 04:36:54;;;;;;;22.65;19.98;;;;;;;18.08;39.40;102218.92;;;;-47
2020/01/01 04:39:54;;;;;;;22.79;19.69;;;;;;;18.11;39.57;102219.27;;;;-47
2020/01/01 04:42:54;;;;;;;21.58;18.97;;;;;;;18.16;39.54;102224.05;;;;-47
2020/01/01 04:45:54;;;;;;;21.01;18.75;;;;;;;18.20;39.46;102217.66;;;;-47
2020/01/01 04:48:54;;;;;;;21.38;18.87;;;;;;;18.24;39.46;102222.48;;;;-47
2020/01/01 04:51:54;;;;;;;20.65;18.36;;;;;;;18.28;39.48;102222.80;;;;-47
2020/01/01 04:54:54;;;;;;;20.30;18.09;;;;;;;18.32;39.50;102223.33;;;;-46
2020/01/01 04:57:54;;;;;;;20.57;18.33;;;;;;;18.36;39.44;102221.52;;;;-47
2020/01/01 05:00:54;;;;;;;21.29;18.49;;;;;;;18.39;39.46;102216.25;;;;-47
2020/01/01 05:03:54;;;;;;;20.91;18.44;;;;;;;18.43;39.48;102208.20;;;;-46
2020/01/01 05:06:54;;;;;;;19.40;17.29;;;;;;;18.47;39.48;102208.34;;;;-47
2020/01/01 05:09:54;;;;;;;20.17;18.03;;;;;;;18.51;39.45;102212.44;;;;-47
2020/01/01 05:12:54;;;;;;;19.57;17.44;;;;;;;18.54;39.52;102218.97;;;;-47
2020/01/01 05:15:54;;;;;;;20.41;17.78;;;;;;;18.57;39.41;102215.06;;;;-47
2020/01/01 05:18:54;;;;;;;20.21;17.34;;;;;;;18.60;39.45;102216.47;;;;-47
2020/01/01 05:21:54;;;;;;;19.02;16.85;;;;;;;18.62;39.40;102217.17;;;;-47
2020/01/01 05:24:54;;;;;;;18.59;16.65;;;;;;;18.66;39.44;102223.28;;;;-47
2020/01/01 05:27:54;;;;;;;19.77;17.19;;;;;;;18.68;39.50;102225.78;;;;-47
2020/01/01 05:30:54;;;;;;;19.00;17.00;;;;;;;18.70;39.42;102225.59;;;;-47
2020/01/01 05:33:54;;;;;;;18.39;16.41;;;;;;;18.72;39.43;102226.48;;;;-47
2020/01/01 05:36:54;;;;;;;17.98;16.11;;;;;;;18.73;39.46;102227.63;;;;-47
2020/01/01 05:39:54;;;;;;;17.50;15.67;;;;;;;18.75;39.41;102226.14;;;;-47
2020/01/01 05:42:54;;;;;;;17.62;15.73;;;;;;;18.78;39.35;102225.70;;;;-47
2020/01/01 05:45:54;;;;;;;17.43;15.61;;;;;;;18.80;39.33;102230.89;;;;-47
2020/01/01 05:48:54;;;;;;;17.17;15.29;;;;;;;18.81;39.35;102225.89;;;;-47
2020/01/01 05:51:54;;;;;;;17.89;15.25;;;;;;;18.83;39.32;102227.16;;;;-47
2020/01/01 05:54:54;;;;;;;16.97;15.19;;;;;;;18.84;39.25;102221.54;;;;-47
2020/01/01 05:57:54;;;;;;;16.91;14.73;;;;;;;18.86;39.26;102223.75;;;;-48
2020/01/01 06:00:54;;;;;;;16.72;14.92;;;;;;;18.86;39.27;102231.28;;;;-47
2020/01/01 06:03:54;;;;;;;16.09;14.41;;;;;;;18.87;39.26;102227.01;;;;-47
2020/01/01 06:06:54;;;;;;;16.09;14.39;;;;;;;18.89;39.18;102229.39;;;;-47
2020/01/01 06:09:54;;;;;;;15.65;14.03;;;;;;;18.91;39.13;102229.27;;;;-47
2020/01/01 06:12:54;;;;;;;15.48;13.88;;;;;;;18.91;39.23;102232.39;;;;-47
2020/01/01 06:15:54;;;;;;;15.77;14.09;;;;;;;18.93;39.17;102236.28;;;;-47
2020/01/01 06:18:54;;;;;;;15.02;13.44;;;;;;;18.94;39.23;102233.39;;;;-48
2020/01/01 06:21:54;;;;;;;15.29;13.61;;;;;;;18.95;39.17;102236.42;;;;-48
2020/01/01 06:24:54;;;;;;;15.26;13.69;;;;;;;18.96;39.16;102237.75;;;;-47
2020/01/01 06:27:54;;;;;;;15.28;13.41;;;;;;;18.97;39.14;102241.12;;;;-47
2020/01/01 06:30:54;;;;;;;14.87;13.37;;;;;;;18.98;39.05;102243.58;;;;-47
2020/01/01 06:33:54;;;;;;;14.80;13.25;;;;;;;18.99;39.04;102245.79;;;;-47
2020/01/01 06:36:54;;;;;;;14.17;12.67;;;;;;;19.00;39.05;102241.68;;;;-47
2020/01/01 06:39:54;;;;;;;13.88;12.48;;;;;;;19.01;39.04;102240.78;;;;-47
2020/01/01 06:42:54;;;;;;;13.46;12.09;;;;;;;19.01;39.09;102240.58;;;;-47
2020/01/01 06:45:54;;;;;;;13.75;12.35;;;;;;;19.02;39.10;102237.67;;;;-47
2020/01/01 06:48:54;;;;;;;13.41;12.11;;;;;;;19.02;39.06;102231.11;;;;-46
2020/01/01 06:51:54;;;;;;;13.85;12.39;;;;;;;19.04;39.06;102236.31;;;;-47
2020/01/01 06:54:54;;;;;;;13.72;12.32;;;;;;;19.03;38.90;102235.20;;;;-47
2020/01/01 06:57:54;;;;;;;13.23;11.91;;;;;;;19.04;39.05;102229.81;;;;-47
2020/01/01 07:00:54;;;;;;;13.33;11.97;;;;;;;19.05;38.94;102222.69;;;;-48
2020/01/01 07:03:54;;;;;;;12.98;11.68;;;;;;;19.06;38.96;102221.40;;;;-47
2020/01/01 07:06:54;;;;;;;12.81;11.45;;;;;;;19.05;38.95;102218.77;;;;-47
2020/01/01 07:09:54;;;;;;;12.82;11.52;;;;;;;19.06;38.88;102218.02;;;;-47
2020/01/01 07:12:54;;;;;;;12.66;11.36;;;;;;;19.07;38.98;102217.28;;;;-47
2020/01/01 07:15:54;;;;;;;12.60;11.32;;;;;;;19.07;38.93;102215.61;;;;-46
2020/01/01 07:18:54;;;;;;;12.51;11.21;;;;;;;19.07;39.00;102224.17;;;;-47
2020/01/01 07:21:54;;;;;;;12.58;11.28;;;;;;;19.08;38.94;102230.16;;;;-47
2020/01/01 07:24:54;;;;;;;12.09;10.79;;;;;;;19.07;38.96;102231.65;;;;-46
2020/01/01 07:27:54;;;;;;;11.62;10.42;;;;;;;19.08;38.99;102237.63;;;;-47
2020/01/01 07:30:54;;;;;;;11.95;10.75;;;;;;;19.08;38.94;102239.38;;;;-47
2020/01/01 07:33:54;;;;;;;12.46;10.75;;;;;;;19.11;39.06;102241.99;;;;-45
2020/01/01 07:36:54;;;;;;;12.20;10.39;;;;;;;19.11;39.38;102241.94;;;;-45
2020/01/01 07:39:54;;;;;;;11.79;10.33;;;;;;;19.14;39.23;102245.16;;;;-45
2020/01/01 07:42:54;;;;;;;10.92;9.82;;;;;;;19.15;39.28;102251.54;;;;-45
2020/01/01 07:45:54;;;;;;;11.50;10.15;;;;;;;19.17;39.29;102254.38;;;;-46
2020/01/01 07:48:54;;;;;;;13.51;10.28;;;;;;;19.18;38.83;102254.44;;;;-46
2020/01/01 07:51:54;;;;;;;12.23;10.05;;;;;;;19.18;38.91;102249.92;;;;-46
2020/01/01 07:54:54;;;;;;;10.83;9.68;;;;;;;19.17;38.96;102254.26;;;;-46
2020/01/01 07:57:54;;;;;;;10.73;9.63;;;;;;;19.16;38.94;102253.80;;;;-47
2020/01/01 08:00:54;;;;;;;10.39;9.31;;;;;;;19.15;38.96;102255.95;;;;-46
2020/01/01 08:03:54;;;;;;;10.21;9.11;;;;;;;19.14;39.00;102254.65;;;;-46
2020/01/01 08:06:54;;;;;;;9.89;8.89;;;;;;;19.15;39.01;102259.30;;;;-46
2020/01/01 08:09:54;;;;;;;10.23;9.16;;;;;;;19.15;38.86;102257.91;;;;-46
2020/01/01 08:12:54;;;;;;;11.14;9.39;;;;;;;19.14;38.98;102257.94;;;;-46
2020/01/01 08:15:54;;;;;;;10.15;8.25;;;;;;;19.14;38.99;102259.45;;;;-46
2020/01/01 08:18:54;;;;;;;9.44;8.52;;;;;;;19.13;39.03;102256.89;;;;-46
2020/01/01 08:21:54;;;;;;;9.89;8.81;;;;;;;19.13;38.96;102261.91;;;;-46
2020/01/01 08:24:54;;;;;;;9.66;8.47;;;;;;;19.12;38.99;102262.39;;;;-46
2020/01/01 08:27:54;;;;;;;9.77;8.78;;;;;;;19.13;38.97;102262.92;;;;-46
2020/01/01 08:30:54;;;;;;;9.41;8.41;;;;;;;19.12;38.93;102261.67;;;;-47
2020/01/01 08:33:54;;;;;;;9.35;8.44;;;;;;;19.13;38.78;102264.84;;;;-46
2020/01/01 08:36:54;;;;;;;9.83;8.81;;;;;;;19.12;38.98;102268.92;;;;-46
2020/01/01 08:39:54;;;;;;;9.47;8.43;;;;;;;19.13;38.94;102277.82;;;;-47
2020/01/01 08:42:55;;;;;;;9.50;8.57;;;;;;;19.12;38.96;102281.98;;;;-47
2020/01/01 08:46:00;;;;;;;10.03;9.03;;;;;;;19.12;38.88;102284.61;;;;-47
2020/01/01 08:48:54;;;;;;;9.49;8.55;;;;;;;19.13;38.82;102286.14;;;;-46
2020/01/01 08:51:54;;;;;;;9.59;8.59;;;;;;;19.12;38.97;102285.95;;;;-46
2020/01/01 08:54:54;;;;;;;9.99;8.96;;;;;;;19.13;38.94;102287.14;;;;-46
2020/01/01 08:57:54;;;;;;;8.92;8.02;;;;;;;19.12;38.96;102286.73;;;;-46
2020/01/01 09:00:54;;;;;;;9.73;8.73;;;;;;;19.13;38.90;102287.40;;;;-46
2020/01/01 09:03:54;;;;;;;9.05;8.15;;;;;;;19.14;38.75;102289.82;;;;-47
2020/01/01 09:06:54;;;;;;;9.03;8.13;;;;;;;19.14;38.88;102284.74;;;;-46
2020/01/01 09:09:54;;;;;;;9.34;8.35;;;;;;;19.13;38.99;102284.44;;;;-46
2020/01/01 09:12:54;;;;;;;9.05;8.14;;;;;;;19.14;38.78;102285.69;;;;-47
2020/01/01 09:15:54;;;;;;;8.97;8.07;;;;;;;19.13;38.97;102284.05;;;;-47
2020/01/01 09:18:54;;;;;;;9.06;8.16;;;;;;;19.13;38.96;102286.90;;;;-47
2020/01/01 09:21:54;;;;;;;9.03;8.11;;;;;;;19.12;38.96;102280.42;;;;-47
2020/01/01 09:24:54;;;;;;;9.06;8.16;;;;;;;19.12;38.90;102278.36;;;;-47
2020/01/01 09:27:54;;;;;;;8.62;7.79;;;;;;;19.12;38.96;102282.27;;;;-47
2020/01/01 09:30:54;;;;;;;8.84;7.94;;;;;;;19.13;38.97;102283.34;;;;-46
2020/01/01 09:33:54;;;;;;;9.00;8.10;;;;;;;19.13;38.76;102285.30;;;;-47
2020/01/01 09:36:54;;;;;;;8.71;7.81;;;;;;;19.11;39.06;102280.73;;;;-56
2020/01/01 09:39:54;;;;;;;8.73;7.83;;;;;;;19.11;39.02;102283.70;;;;-56
2020/01/01 09:42:54;;;;;;;8.46;7.57;;;;;;;19.11;39.02;102281.35;;;;-56
2020/01/01 09:45:54;;;;;;;8.89;7.99;;;;;;;19.12;38.75;102274.59;;;;-56
2020/01/01 09:48:54;;;;;;;8.61;7.71;;;;;;;19.12;39.00;102271.59;;;;-49
2020/01/01 09:51:54;;;;;;;8.71;7.81;;;;;;;19.10;39.02;102269.22;;;;-49
2020/01/01 09:54:54;;;;;;;8.42;7.62;;;;;;;19.11;39.02;102267.01;;;;-56
2020/01/01 09:57:54;;;;;;;8.49;7.59;;;;;;;19.10;38.90;102267.21;;;;-48
2020/01/01 10:00:54;;;;;;;8.23;7.43;;;;;;;19.11;38.99;102268.45;;;;-47
2020/01/01 10:03:54;;;;;;;8.34;7.49;;;;;;;19.11;39.05;102267.06;;;;-48
2020/01/01 10:06:54;;;;;;;8.33;7.51;;;;;;;19.12;38.88;102266.24;;;;-56
2020/01/01 10:09:54;;;;;;;8.27;7.40;;;;;;;19.13;38.98;102261.08;;;;-56
2020/01/01 10:12:54;;;;;;;8.00;7.20;;;;;;;19.13;38.85;102252.64;;;;-55
2020/01/01 10:15:54;;;;;;;8.49;7.59;;;;;;;19.14;38.92;102252.02;;;;-56
2020/01/01 10:18:54;;;;;;;7.75;6.95;;;;;;;19.15;38.91;102249.31;;;;-56
2020/01/01 10:21:54;;;;;;;8.32;7.51;;;;;;;19.15;38.92;102250.03;;;;-54
2020/01/01 10:24:54;;;;;;;8.27;7.47;;;;;;;19.16;38.67;102248.60;;;;-56
2020/01/01 10:27:54;;;;;;;7.99;7.17;;;;;;;19.16;38.94;102253.17;;;;-55
2020/01/01 10:30:54;;;;;;;7.92;7.12;;;;;;;19.16;38.90;102252.95;;;;-54
2020/01/01 10:33:54;;;;;;;8.03;7.19;;;;;;;19.16;38.89;102252.67;;;;-56
2020/01/01 10:36:54;;;;;;;7.37;6.67;;;;;;;19.18;38.88;102250.92;;;;-55
2020/01/01 10:39:54;;;;;;;7.39;6.61;;;;;;;19.18;38.89;102247.41;;;;-54
2020/01/01 10:42:54;;;;;;;7.35;6.65;;;;;;;19.18;38.88;102253.05;;;;-57
2020/01/01 10:45:54;;;;;;;8.09;7.06;;;;;;;19.18;38.88;102254.28;;;;-54
2020/01/01 10:48:54;;;;;;;7.33;6.63;;;;;;;19.20;38.69;102256.05;;;;-57
2020/01/01 10:51:54;;;;;;;7.42;6.71;;;;;;;19.19;38.80;102250.41;;;;-56
2020/01/01 10:54:54;;;;;;;10.57;7.31;;;;;;;19.23;39.15;102243.03;;;;-56
2020/01/01 10:57:54;;;;;;;8.57;6.47;;;;;;;19.24;39.46;102234.02;;;;-58
2020/01/01 11:00:54;;;;;;;7.67;6.88;;;;;;;19.28;39.47;102229.50;;;;-57
2020/01/01 11:03:54;;;;;;;7.56;6.58;;;;;;;19.32;39.41;102224.27;;;;-55
2020/01/01 11:06:54;;;;;;;6.94;6.24;;;;;;;19.35;39.54;102221.47;;;;-55
2020/01/01 11:09:54;;;;;;;7.11;6.41;;;;;;;19.38;39.49;102216.34;;;;-45
2020/01/01 11:12:54;;;;;;;7.26;6.41;;;;;;;19.42;39.40;102216.69;;;;-52
2020/01/01 11:15:54;;;;;;;7.11;6.41;;;;;;;19.48;39.59;102217.63;;;;-55
2020/01/01 11:18:54;;;;;;;7.32;6.53;;;;;;;19.49;39.21;102213.79;;;;-50
2020/01/01 11:21:54;;;;;;;8.63;6.82;;;;;;;19.53;39.34;102213.63;;;;-51
2020/01/01 11:24:54;;;;;;;7.57;6.83;;;;;;;19.56;39.21;102205.81;;;;-49
2020/01/01 11:27:54;;;;;;;7.98;6.74;;;;;;;19.59;38.85;102203.73;;;;-51
2020/01/01 11:30:54;;;;;;;7.27;6.57;;;;;;;19.64;39.48;102200.88;;;;-48
2020/01/01 11:33:54;;;;;;;6.73;6.05;;;;;;;19.71;39.72;102193.72;;;;-57
2020/01/01 11:36:54;;;;;;;7.11;6.41;;;;;;;19.72;39.45;102187.30;;;;-58
2020/01/01 11:39:54;;;;;;;7.75;6.32;;;;;;;19.79;40.44;102183.96;;;;-47
2020/01/01 11:42:54;;;;;;;7.31;6.47;;;;;;;19.81;39.84;102178.41;;;;-48
2020/01/01 11:45:54;;;;;;;8.25;6.32;;;;;;;19.83;39.77;102171.82;;;;-47
2020/01/01 11:48:54;;;;;;;7.22;6.37;;;;;;;19.87;40.05;102167.53;;;;-48
2020/01/01 11:51:54;;;;;;;6.44;5.79;;;;;;;19.89;40.29;102163.59;;;;-48
2020/01/01 11:54:54;;;;;;;7.69;6.40;;;;;;;19.92;40.15;102161.97;;;;-52
2020/01/01 11:57:54;;;;;;;9.39;6.15;;;;;;;19.94;40.01;102155.39;;;;-51
2020/01/01 12:00:55;;;;;;;9.89;6.45;;;;;;;19.93;39.46;102150.34;;;;-51
2020/01/01 12:03:54;;;;;;;6.47;5.65;;;;;;;19.90;39.19;102147.33;;;;-51
2020/01/01 12:06:54;;;;;;;6.50;5.80;;;;;;;19.87;39.22;102142.05;;;;-51
2020/01/01 12:09:54;;;;;;;7.77;5.89;;;;;;;19.85;39.17;102134.92;;;;-51
2020/01/01 12:12:54;;;;;;;6.31;5.71;;;;;;;19.85;39.12;102134.57;;;;-52
2020/01/01 12:15:54;;;;;;;7.59;5.72;;;;;;;19.82;39.08;102136.00;;;;-52
2020/01/01 12:18:54;;;;;;;6.25;5.65;;;;;;;19.80;39.02;102133.84;;;;-51
2020/01/01 12:21:54;;;;;;;6.13;5.53;;;;;;;19.79;39.07;102135.28;;;;-51
2020/01/01 12:24:54;;;;;;;6.44;5.47;;;;;;;19.78;39.08;102134.60;;;;-52
2020/01/01 12:27:54;;;;;;;6.42;5.65;;;;;;;19.76;39.10;102128.59;;;;-52
2020/01/01 12:30:54;;;;;;;6.62;5.62;;;;;;;19.77;38.86;102128.08;;;;-51
2020/01/01 12:33:54;;;;;;;7.22;5.73;;;;;;;19.76;38.88;102134.63;;;;-51
2020/01/01 12:36:54;;;;;;;6.28;5.37;;;;;;;19.75;38.91;102126.66;;;;-52
2020/01/01 12:39:54;;;;;;;6.34;5.65;;;;;;;19.74;39.01;102125.02;;;;-52
2020/01/01 12:42:54;;;;;;;5.95;5.35;;;;;;;19.73;38.98;102115.85;;;;-51
2020/01/01 12:45:54;;;;;;;6.63;5.71;;;;;;;19.72;38.81;102116.67;;;;-51
2020/01/01 12:48:54;;;;;;;7.01;5.46;;;;;;;19.72;38.88;102115.28;;;;-51
2020/01/01 12:51:54;;;;;;;5.94;5.34;;;;;;;19.71;38.87;102112.02;;;;-51
2020/01/01 12:54:54;;;;;;;6.25;5.58;;;;;;;19.71;38.93;102108.11;;;;-51
2020/01/01 12:57:54;;;;;;;5.98;5.31;;;;;;;19.71;38.90;102104.09;;;;-51
2020/01/01 13:00:54;;;;;;;5.77;5.15;;;;;;;19.70;38.85;102098.16;;;;-51
2020/01/01 13:03:54;;;;;;;6.41;5.39;;;;;;;19.71;38.72;102093.02;;;;-51
2020/01/01 13:06:54;;;;;;;5.94;5.34;;;;;;;19.70;38.74;102091.89;;;;-51
2020/01/01 13:09:54;;;;;;;6.67;5.41;;;;;;;19.70;38.75;102094.84;;;;-59
2020/01/01 13:12:54;;;;;;;5.75;5.15;;;;;;;19.70;38.75;102087.25;;;;-58
2020/01/01 13:15:54;;;;;;;5.78;5.20;;;;;;;19.70;38.63;102086.25;;;;-59
2020/01/01 13:18:54;;;;;;;5.67;5.11;;;;;;;19.69;38.77;102083.61;;;;-49
2020/01/01 13:21:54;;;;;;;5.82;5.22;;;;;;;19.69;38.78;102080.03;;;;-49
2020/01/01 13:24:54;;;;;;;6.41;5.43;;;;;;;19.69;38.81;102081.82;;;;-49
2020/01/01 13:27:54;;;;;;;5.90;5.16;;;;;;;19.69;38.66;102083.66;;;;-49
2020/01/01 13:30:54;;;;;;;5.48;4.97;;;;;;;19.69;38.81;102082.99;;;;-49
2020/01/01 13:33:54;;;;;;;5.67;5.09;;;;;;;19.69;38.83;102082.05;;;;-49
2020/01/01 13:36:54;;;;;;;5.77;5.17;;;;;;;19.69;38.67;102080.98;;;;-48
2020/01/01 13:39:54;;;;;;;7.21;5.14;;;;;;;19.72;38.65;102078.51;;;;-46
2020/01/01 13:42:54;;;;;;;5.88;5.28;;;;;;;19.75;39.09;102081.56;;;;-46
2020/01/01 13:45:54;;;;;;;6.36;5.04;;;;;;;19.77;39.00;102084.66;;;;-49
2020/01/01 13:48:54;;;;;;;7.39;5.20;;;;;;;19.77;38.83;102079.71;;;;-49
2020/01/01 13:51:54;;;;;;;5.62;4.83;;;;;;;19.76;38.80;102079.75;;;;-49
2020/01/01 13:54:54;;;;;;;5.33;4.83;;;;;;;19.76;38.73;102082.44;;;;-49
2020/01/01 13:57:54;;;;;;;5.82;5.13;;;;;;;19.76;38.75;102075.45;;;;-49
2020/01/01 14:00:54;;;;;;;5.43;4.93;;;;;;;19.76;38.67;102073.92;;;;-49
2020/01/01 14:03:54;;;;;;;6.00;4.98;;;;;;;19.76;38.87;102080.09;;;;-49
2020/01/01 14:06:54;;;;;;;6.49;4.72;;;;;;;19.76;38.77;102082.44;;;;-48
2020/01/01 14:09:54;;;;;;;5.67;4.98;;;;;;;19.77;38.72;102080.66;;;;-49
2020/01/01 14:12:56;;;;;;;5.61;4.95;;;;;;;19.78;38.86;102082.55;;;;-49
2020/01/01 14:15:54;;;;;;;5.23;4.71;;;;;;;19.77;38.83;102078.98;;;;-49
2020/01/01 14:18:54;;;;;;;5.90;4.84;;;;;;;19.79;38.83;102081.78;;;;-49
2020/01/01 14:21:54;;;;;;;5.09;4.59;;;;;;;19.79;38.80;102080.46;;;;-49
2020/01/01 14:24:54;;;;;;;5.40;4.90;;;;;;;19.84;38.62;102076.28;;;;-51
2020/01/01 14:27:54;;;;;;;6.05;5.01;;;;;;;19.87;39.22;102081.55;;;;-48
2020/01/01 14:30:54;;;;;;;7.89;4.71;;;;;;;19.89;39.28;102081.20;;;;-48
2020/01/01 14:33:54;;;;;;;5.16;4.60;;;;;;;19.93;39.35;102085.12;;;;-47
2020/01/01 14:36:54;;;;;;;6.51;4.77;;;;;;;19.94;39.53;102085.91;;;;-47
2020/01/01 14:39:56;;;;;;;5.50;4.91;;;;;;;19.97;39.49;102085.00;;;;-49
2020/01/01 14:42:57;;;;;;;5.60;4.81;;;;;;;20.00;39.48;102081.94;;;;-51
2020/01/01 14:45:57;;;;;;;5.33;4.83;;;;;;;20.02;39.47;102084.70;;;;-47
2020/01/01 14:48:54;;;;;;;6.28;4.57;;;;;;;20.03;39.54;102082.53;;;;-51
2020/01/01 14:51:54;;;;;;;6.34;4.76;;;;;;;20.06;39.60;102086.55;;;;-46
2020/01/01 14:54:54;;;;;;;5.22;4.69;;;;;;;20.09;39.50;102090.11;;;;-49
2020/01/01 14:57:54;;;;;;;5.54;4.69;;;;;;;20.09;39.48;102086.36;;;;-47
2020/01/01 15:00:54;;;;;;;6.29;4.85;;;;;;;20.09;39.49;102087.10;;;;-51
2020/01/01 15:06:54;;;;;;;9.05;5.05;;;;;;;20.12;38.77;102089.42;;;;-50
2020/01/01 15:09:54;;;;;;;7.59;4.97;;;;;;;20.14;39.06;102092.95;;;;-52
2020/01/01 15:12:54;;;;;;;7.51;5.14;;;;;;;20.16;39.19;102101.11;;;;-45
2020/01/01 15:15:54;;;;;;;6.63;4.85;;;;;;;20.17;39.24;102101.22;;;;-51
2020/01/01 15:18:54;;;;;;;6.38;4.77;;;;;;;20.19;39.38;102103.53;;;;-49
2020/01/01 15:21:54;;;;;;;6.44;5.03;;;;;;;20.20;39.54;102103.09;;;;-48
2020/01/01 15:24:54;;;;;;;6.65;4.84;;;;;;;20.22;39.50;102103.47;;;;-48
2020/01/01 15:27:54;;;;;;;6.19;4.97;;;;;;;20.22;39.33;102099.50;;;;-59
2020/01/01 15:30:54;;;;;;;6.62;5.23;;;;;;;20.23;39.47;102097.44;;;;-50
2020/01/01 15:33:54;;;;;;;6.61;4.95;;;;;;;20.23;39.36;102100.91;;;;-52
2020/01/01 15:36:54;;;;;;;12.05;5.46;;;;;;;20.24;39.17;102097.63;;;;-47
2020/01/01 15:39:54;;;;;;;9.31;5.76;;;;;;;20.23;39.08;102096.92;;;;-48
2020/01/01 15:42:54;;;;;;;7.15;6.00;;;;;;;20.26;39.19;102095.52;;;;-48
2020/01/01 15:45:54;;;;;;;8.64;6.25;;;;;;;20.27;39.06;102094.98;;;;-46
2020/01/01 15:48:54;;;;;;;7.54;6.16;;;;;;;20.26;38.92;102095.24;;;;-49
2020/01/01 15:51:54;;;;;;;7.19;6.21;;;;;;;20.27;38.69;102099.39;;;;-51
2020/01/01 15:54:54;;;;;;;8.73;6.54;;;;;;;20.27;38.89;102096.48;;;;-44
2020/01/01 15:57:54;;;;;;;6.95;6.25;;;;;;;20.28;38.88;102101.36;;;;-51
2020/01/01 16:00:54;;;;;;;8.25;6.71;;;;;;;20.26;38.53;102100.61;;;;-52
2020/01/01 16:03:54;;;;;;;7.80;6.74;;;;;;;20.26;38.64;102098.76;;;;-45
2020/01/01 16:06:54;;;;;;;7.55;6.73;;;;;;;20.25;38.64;102100.87;;;;-52
2020/01/01 16:09:54;;;;;;;8.65;6.97;;;;;;;20.28;38.83;102099.30;;;;-49
2020/01/01 16:12:54;;;;;;;7.94;6.51;;;;;;;20.26;38.73;102105.36;;;;-49
2020/01/01 16:15:54;;;;;;;8.69;7.18;;;;;;;20.24;38.38;102109.37;;;;-49
2020/01/01 16:18:54;;;;;;;7.89;7.07;;;;;;;20.23;38.42;102106.66;;;;-49
2020/01/01 16:21:54;;;;;;;7.77;6.91;;;;;;;20.21;38.41;102105.75;;;;-49
2020/01/01 16:24:54;;;;;;;7.58;6.79;;;;;;;20.19;38.42;102104.50;;;;-49
2020/01/01 16:27:54;;;;;;;7.83;7.01;;;;;;;20.18;38.36;102105.72;;;;-49
2020/01/01 16:30:54;;;;;;;8.52;7.15;;;;;;;20.16;38.45;102102.06;;;;-49
2020/01/01 16:33:54;;;;;;;12.91;6.86;;;;;;;20.15;38.38;102102.53;;;;-49